CheckWX is a tool to help pilots better visualize weather data.  It is not intended as a substitute for an official pre-flight weather briefing.

00:58:13 UTC

FYLZ METAR
Luderitz Airport
Luderitz, Namibia
Current

58 mins ago

FYLZ 190000Z AUTO 07002KT //// // ////// 20/02 Q1020
Observed
Jun-19 @ 00:00 UTC
Wind
  • 070° at 2 KTS
Visibility
Temperature
20°C / 68°F
Dewpoint
C / 36°F
Humidity
30%
Altimeter
30.12" Hg
Pressure
1019.92 hPa
Previous

2 hours ago

FYLZ 182300Z AUTO 04003KT //// // ////// 20/01 Q1020
Observed
Jun-18 @ 23:00 UTC
Wind
  • 040° at 3 KTS
Visibility
Temperature
20°C / 68°F
Dewpoint
C / 34°F
Humidity
28%
Altimeter
30.12" Hg
Pressure
1019.92 hPa
Previous

3 hours ago

FYLZ 182200Z AUTO 20002KT //// // ////// 18/05 Q1020
Observed
Jun-18 @ 22:00 UTC
Wind
  • 200° at 2 KTS
Visibility
Temperature
18°C / 64°F
Dewpoint
C / 41°F
Humidity
43%
Altimeter
30.12" Hg
Pressure
1019.92 hPa